sensor_id;sensor_type;location;lat;lon;timestamp;pressure;altitude;pressure_sealevel;temperature;humidity
12178;BME280;6152;48.728;9.256;2022-09-09T00:07:19;96765.97;;;13.53;100.00
12178;BME280;6152;48.728;9.256;2022-09-09T00:14:56;96757.19;;;13.54;100.00
12178;BME280;6152;48.728;9.256;2022-09-09T00:17:43;96755.25;;;13.56;100.00
12178;BME280;6152;48.728;9.256;2022-09-09T00:23:00;96757.19;;;13.54;100.00
12178;BME280;6152;48.728;9.256;2022-09-09T00:28:24;96751.94;;;13.54;100.00
12178;BME280;6152;48.728;9.256;2022-09-09T00:30:52;96748.50;;;13.54;100.00
12178;BME280;6152;48.728;9.256;2022-09-09T00:33:27;96749.34;;;13.54;100.00
12178;BME280;6152;48.728;9.256;2022-09-09T00:35:57;96753.59;;;13.55;100.00
12178;BME280;6152;48.728;9.256;2022-09-09T00:41:07;96747.91;;;13.61;100.00
12178;BME280;6152;48.728;9.256;2022-09-09T00:43:38;96750.28;;;13.64;100.00
12178;BME280;6152;48.728;9.256;2022-09-09T00:46:37;96748.13;;;13.70;100.00
12178;BME280;6152;48.728;9.256;2022-09-09T00:52:22;96753.81;;;13.86;100.00
12178;BME280;6152;48.728;9.256;2022-09-09T00:55:19;96751.66;;;13.91;100.00
12178;BME280;6152;48.728;9.256;2022-09-09T00:57:51;96755.69;;;13.95;100.00
12178;BME280;6152;48.728;9.256;2022-09-09T01:10:59;96757.66;;;14.13;100.00
12178;BME280;6152;48.728;9.256;2022-09-09T01:13:33;96747.91;;;14.15;100.00
12178;BME280;6152;48.728;9.256;2022-09-09T01:16:03;96745.16;;;14.17;100.00
12178;BME280;6152;48.728;9.256;2022-09-09T01:18:33;96746.13;;;14.16;100.00
12178;BME280;6152;48.728;9.256;2022-09-09T01:23:49;96742.78;;;14.14;100.00
12178;BME280;6152;48.728;9.256;2022-09-09T01:28:54;96762.44;;;14.08;100.00
12178;BME280;6152;48.728;9.256;2022-09-09T01:31:31;96764.22;;;14.08;100.00
12178;BME280;6152;48.728;9.256;2022-09-09T01:34:00;96761.84;;;14.05;100.00
12178;BME280;6152;48.728;9.256;2022-09-09T01:36:29;96774.25;;;14.03;100.00
12178;BME280;6152;48.728;9.256;2022-09-09T01:38:59;96769.94;;;14.02;100.00
12178;BME280;6152;48.728;9.256;2022-09-09T01:41:25;96771.63;;;14.03;100.00
12178;BME280;6152;48.728;9.256;2022-09-09T01:43:54;96755.19;;;14.01;100.00
12178;BME280;6152;48.728;9.256;2022-09-09T01:46:22;96755.34;;;13.99;100.00
12178;BME280;6152;48.728;9.256;2022-09-09T01:48:51;96748.44;;;13.98;100.00
12178;BME280;6152;48.728;9.256;2022-09-09T01:51:19;96746.91;;;13.96;100.00
12178;BME280;6152;48.728;9.256;2022-09-09T01:53:46;96743.56;;;13.94;100.00
12178;BME280;6152;48.728;9.256;2022-09-09T02:04:38;96761.16;;;13.92;100.00
12178;BME280;6152;48.728;9.256;2022-09-09T02:09:42;96768.88;;;13.93;100.00
12178;BME280;6152;48.728;9.256;2022-09-09T02:12:13;96770.56;;;13.94;100.00
12178;BME280;6152;48.728;9.256;2022-09-09T02:14:45;96762.34;;;13.99;100.00
12178;BME280;6152;48.728;9.256;2022-09-09T02:17:15;96758.91;;;13.98;100.00
12178;BME280;6152;48.728;9.256;2022-09-09T02:20:03;96762.34;;;13.99;100.00
12178;BME280;6152;48.728;9.256;2022-09-09T02:22:31;96759.84;;;13.97;100.00
12178;BME280;6152;48.728;9.256;2022-09-09T02:25:00;96757.13;;;13.99;100.00
12178;BME280;6152;48.728;9.256;2022-09-09T02:27:28;96750.31;;;13.96;100.00
12178;BME280;6152;48.728;9.256;2022-09-09T02:29:57;96748.78;;;13.94;100.00
12178;BME280;6152;48.728;9.256;2022-09-09T02:32:25;96764.72;;;13.91;100.00
12178;BME280;6152;48.728;9.256;2022-09-09T02:34:55;96759.75;;;13.88;100.00
12178;BME280;6152;48.728;9.256;2022-09-09T02:37:26;96757.50;;;13.83;100.00
12178;BME280;6152;48.728;9.256;2022-09-09T02:39:54;96760.34;;;13.80;100.00
12178;BME280;6152;48.728;9.256;2022-09-09T02:42:21;96763.22;;;13.77;100.00
12178;BME280;6152;48.728;9.256;2022-09-09T02:44:48;96764.53;;;13.72;100.00
12178;BME280;6152;48.728;9.256;2022-09-09T02:47:34;96759.31;;;13.72;100.00
12178;BME280;6152;48.728;9.256;2022-09-09T02:50:13;96751.81;;;13.67;100.00
12178;BME280;6152;48.728;9.256;2022-09-09T02:53:15;96757.97;;;13.66;100.00
12178;BME280;6152;48.728;9.256;2022-09-09T02:55:51;96753.72;;;13.65;100.00
12178;BME280;6152;48.728;9.256;2022-09-09T02:58:21;96754.66;;;13.64;100.00
12178;BME280;6152;48.728;9.256;2022-09-09T03:00:49;96753.94;;;13.62;100.00
12178;BME280;6152;48.728;9.256;2022-09-09T03:03:16;96756.69;;;13.60;100.00
12178;BME280;6152;48.728;9.256;2022-09-09T03:05:44;96755.03;;;13.59;100.00
12178;BME280;6152;48.728;9.256;2022-09-09T03:08:10;96752.75;;;13.55;100.00
12178;BME280;6152;48.728;9.256;2022-09-09T03:10:37;96759.06;;;13.52;100.00
12178;BME280;6152;48.728;9.256;2022-09-09T03:13:04;96757.88;;;13.45;100.00
12178;BME280;6152;48.728;9.256;2022-09-09T03:15:32;96759.06;;;13.41;100.00
12178;BME280;6152;48.728;9.256;2022-09-09T03:17:59;96754.56;;;13.43;100.00
12178;BME280;6152;48.728;9.256;2022-09-09T03:20:27;96756.44;;;13.41;100.00
12178;BME280;6152;48.728;9.256;2022-09-09T03:22:54;96760.03;;;13.40;100.00
12178;BME280;6152;48.728;9.256;2022-09-09T03:25:21;96764.44;;;13.40;100.00
12178;BME280;6152;48.728;9.256;2022-09-09T03:27:50;96762.41;;;13.32;100.00
12178;BME280;6152;48.728;9.256;2022-09-09T03:30:16;96760.50;;;13.23;100.00
12178;BME280;6152;48.728;9.256;2022-09-09T03:32:42;96767.16;;;13.16;100.00
12178;BME280;6152;48.728;9.256;2022-09-09T03:35:09;96770.22;;;13.10;100.00
12178;BME280;6152;48.728;9.256;2022-09-09T03:37:35;96765.41;;;13.04;100.00
12178;BME280;6152;48.728;9.256;2022-09-09T03:40:01;96769.19;;;13.00;100.00
12178;BME280;6152;48.728;9.256;2022-09-09T03:42:27;96768.41;;;12.99;100.00
12178;BME280;6152;48.728;9.256;2022-09-09T03:44:53;96771.81;;;13.00;100.00
12178;BME280;6152;48.728;9.256;2022-09-09T03:47:21;96760.75;;;12.96;100.00
12178;BME280;6152;48.728;9.256;2022-09-09T03:49:48;96758.53;;;12.92;100.00
12178;BME280;6152;48.728;9.256;2022-09-09T03:52:15;96759.59;;;12.89;100.00
12178;BME280;6152;48.728;9.256;2022-09-09T03:54:41;96758.88;;;12.87;100.00
12178;BME280;6152;48.728;9.256;2022-09-09T03:57:08;96755.78;;;12.93;100.00
12178;BME280;6152;48.728;9.256;2022-09-09T03:59:35;96753.78;;;12.86;100.00
12178;BME280;6152;48.728;9.256;2022-09-09T04:02:01;96756.72;;;12.81;100.00
12178;BME280;6152;48.728;9.256;2022-09-09T04:04:28;96754.69;;;12.74;100.00
12178;BME280;6152;48.728;9.256;2022-09-09T04:06:54;96757.53;;;12.71;100.00
12178;BME280;6152;48.728;9.256;2022-09-09T04:09:20;96759.63;;;12.65;100.00
12178;BME280;6152;48.728;9.256;2022-09-09T04:11:46;96769.47;;;12.62;100.00
12178;BME280;6152;48.728;9.256;2022-09-09T04:14:13;96767.53;;;12.53;100.00
12178;BME280;6152;48.728;9.256;2022-09-09T04:16:39;96766.72;;;12.52;100.00
12178;BME280;6152;48.728;9.256;2022-09-09T04:19:11;96765.16;;;12.50;100.00
12178;BME280;6152;48.728;9.256;2022-09-09T04:21:42;96765.25;;;12.48;100.00
12178;BME280;6152;48.728;9.256;2022-09-09T04:24:08;96767.41;;;12.43;100.00
12178;BME280;6152;48.728;9.256;2022-09-09T04:26:36;96762.41;;;12.40;100.00
12178;BME280;6152;48.728;9.256;2022-09-09T04:29:03;96772.00;;;12.40;100.00
12178;BME280;6152;48.728;9.256;2022-09-09T04:31:29;96765.13;;;12.39;100.00
12178;BME280;6152;48.728;9.256;2022-09-09T04:33:56;96759.78;;;12.40;100.00
12178;BME280;6152;48.728;9.256;2022-09-09T04:36:22;96770.47;;;12.48;100.00
12178;BME280;6152;48.728;9.256;2022-09-09T04:38:48;96760.59;;;12.64;100.00
12178;BME280;6152;48.728;9.256;2022-09-09T04:41:15;96767.03;;;12.72;100.00
12178;BME280;6152;48.728;9.256;2022-09-09T04:43:42;96766.56;;;12.78;100.00
12178;BME280;6152;48.728;9.256;2022-09-09T04:46:09;96771.09;;;12.87;100.00
12178;BME280;6152;48.728;9.256;2022-09-09T04:48:35;96769.56;;;12.95;100.00
12178;BME280;6152;48.728;9.256;2022-09-09T04:51:03;96767.00;;;13.06;100.00
12178;BME280;6152;48.728;9.256;2022-09-09T04:53:30;96770.69;;;13.15;100.00
12178;BME280;6152;48.728;9.256;2022-09-09T04:56:07;96765.22;;;13.18;100.00
12178;BME280;6152;48.728;9.256;2022-09-09T04:58:36;96772.22;;;13.18;100.00
12178;BME280;6152;48.728;9.256;2022-09-09T05:01:23;96779.03;;;13.20;100.00
12178;BME280;6152;48.728;9.256;2022-09-09T05:03:50;96767.84;;;13.18;100.00
12178;BME280;6152;48.728;9.256;2022-09-09T05:06:19;96774.00;;;13.17;100.00
12178;BME280;6152;48.728;9.256;2022-09-09T05:08:46;96775.94;;;13.15;100.00
12178;BME280;6152;48.728;9.256;2022-09-09T05:11:27;96784.69;;;13.14;100.00
12178;BME280;6152;48.728;9.256;2022-09-09T05:13:53;96785.66;;;13.13;100.00
12178;BME280;6152;48.728;9.256;2022-09-09T05:16:20;96793.59;;;13.11;100.00
12178;BME280;6152;48.728;9.256;2022-09-09T05:18:47;96787.31;;;13.14;100.00
12178;BME280;6152;48.728;9.256;2022-09-09T05:21:15;96780.91;;;13.18;100.00
12178;BME280;6152;48.728;9.256;2022-09-09T05:23:42;96777.13;;;13.22;100.00
12178;BME280;6152;48.728;9.256;2022-09-09T05:26:13;96782.72;;;13.29;100.00
12178;BME280;6152;48.728;9.256;2022-09-09T05:28:39;96787.22;;;13.38;100.00
12178;BME280;6152;48.728;9.256;2022-09-09T05:31:08;96791.63;;;13.48;100.00
12178;BME280;6152;48.728;9.256;2022-09-09T05:33:35;96787.13;;;13.61;100.00
12178;BME280;6152;48.728;9.256;2022-09-09T05:36:03;96789.00;;;13.71;100.00
12178;BME280;6152;48.728;9.256;2022-09-09T05:38:31;96787.34;;;13.81;100.00
12178;BME280;6152;48.728;9.256;2022-09-09T05:40:59;96786.16;;;13.96;100.00
12178;BME280;6152;48.728;9.256;2022-09-09T05:43:26;96786.25;;;14.05;100.00
12178;BME280;6152;48.728;9.256;2022-09-09T05:46:04;96790.88;;;14.13;100.00
12178;BME280;6152;48.728;9.256;2022-09-09T05:48:35;96801.78;;;14.18;100.00
12178;BME280;6152;48.728;9.256;2022-09-09T05:51:03;96788.19;;;14.24;100.00
12178;BME280;6152;48.728;9.256;2022-09-09T05:53:30;96803.44;;;14.30;100.00
12178;BME280;6152;48.728;9.256;2022-09-09T05:56:15;96796.06;;;14.35;100.00
12178;BME280;6152;48.728;9.256;2022-09-09T05:58:41;96805.81;;;14.44;100.00
12178;BME280;6152;48.728;9.256;2022-09-09T06:01:17;96809.38;;;14.43;100.00
12178;BME280;6152;48.728;9.256;2022-09-09T06:03:44;96808.66;;;14.41;100.00
12178;BME280;6152;48.728;9.256;2022-09-09T06:06:13;96814.84;;;14.40;100.00
12178;BME280;6152;48.728;9.256;2022-09-09T06:08:41;96806.59;;;14.45;100.00
12178;BME280;6152;48.728;9.256;2022-09-09T06:11:11;96806.72;;;14.54;100.00
12178;BME280;6152;48.728;9.256;2022-09-09T06:13:38;96802.41;;;14.64;100.00
12178;BME280;6152;48.728;9.256;2022-09-09T06:16:12;96803.81;;;14.69;100.00
12178;BME280;6152;48.728;9.256;2022-09-09T06:18:39;96802.31;;;14.76;100.00
12178;BME280;6152;48.728;9.256;2022-09-09T06:21:07;96796.59;;;14.82;100.00
12178;BME280;6152;48.728;9.256;2022-09-09T06:23:35;96802.28;;;14.87;100.00
12178;BME280;6152;48.728;9.256;2022-09-09T06:26:07;96803.56;;;14.92;100.00
12178;BME280;6152;48.728;9.256;2022-09-09T06:28:34;96797.69;;;15.00;100.00
12178;BME280;6152;48.728;9.256;2022-09-09T06:31:08;96797.81;;;15.19;100.00
12178;BME280;6152;48.728;9.256;2022-09-09T06:33:37;96802.78;;;15.22;100.00
12178;BME280;6152;48.728;9.256;2022-09-09T06:36:05;96804.97;;;15.17;100.00
12178;BME280;6152;48.728;9.256;2022-09-09T06:38:32;96808.09;;;15.32;100.00
12178;BME280;6152;48.728;9.256;2022-09-09T06:40:59;96808.13;;;15.41;100.00
12178;BME280;6152;48.728;9.256;2022-09-09T06:43:26;96803.13;;;15.49;100.00
12178;BME280;6152;48.728;9.256;2022-09-09T06:46:00;96810.19;;;15.58;100.00
12178;BME280;6152;48.728;9.256;2022-09-09T06:48:27;96809.16;;;15.71;100.00
12178;BME280;6152;48.728;9.256;2022-09-09T06:51:07;96803.09;;;15.80;100.00
12178;BME280;6152;48.728;9.256;2022-09-09T06:53:35;96812.19;;;15.76;100.00
12178;BME280;6152;48.728;9.256;2022-09-09T06:56:02;96814.31;;;15.82;100.00
12178;BME280;6152;48.728;9.256;2022-09-09T06:58:43;96806.75;;;15.98;100.00
12178;BME280;6152;48.728;9.256;2022-09-09T07:01:11;96815.09;;;16.03;100.00
12178;BME280;6152;48.728;9.256;2022-09-09T07:03:38;96812.50;;;16.22;100.00
12178;BME280;6152;48.728;9.256;2022-09-09T07:06:06;96814.34;;;16.41;100.00
12178;BME280;6152;48.728;9.256;2022-09-09T07:08:33;96814.78;;;16.55;100.00
12178;BME280;6152;48.728;9.256;2022-09-09T07:11:07;96814.66;;;16.66;100.00
12178;BME280;6152;48.728;9.256;2022-09-09T07:13:34;96809.13;;;16.70;100.00
12178;BME280;6152;48.728;9.256;2022-09-09T07:16:08;96819.66;;;16.89;100.00
12178;BME280;6152;48.728;9.256;2022-09-09T07:18:35;96819.66;;;16.89;100.00
12178;BME280;6152;48.728;9.256;2022-09-09T07:21:03;96814.66;;;17.05;100.00
12178;BME280;6152;48.728;9.256;2022-09-09T07:23:30;96816.56;;;17.22;100.00
12178;BME280;6152;48.728;9.256;2022-09-09T07:25:57;96822.09;;;17.29;100.00
12178;BME280;6152;48.728;9.256;2022-09-09T07:28:25;96820.59;;;17.26;100.00
12178;BME280;6152;48.728;9.256;2022-09-09T07:31:00;96813.50;;;17.36;100.00
12178;BME280;6152;48.728;9.256;2022-09-09T07:33:30;96812.06;;;17.51;100.00
12178;BME280;6152;48.728;9.256;2022-09-09T07:36:05;96815.63;;;17.70;100.00
12178;BME280;6152;48.728;9.256;2022-09-09T07:38:43;96808.78;;;17.86;100.00
12178;BME280;6152;48.728;9.256;2022-09-09T07:41:14;96816.50;;;18.25;100.00
12178;BME280;6152;48.728;9.256;2022-09-09T07:43:41;96825.44;;;18.14;100.00
12178;BME280;6152;48.728;9.256;2022-09-09T07:46:09;96819.38;;;18.04;100.00
12178;BME280;6152;48.728;9.256;2022-09-09T07:48:35;96817.94;;;18.19;100.00
12178;BME280;6152;48.728;9.256;2022-09-09T07:51:11;96813.59;;;18.45;98.66
12178;BME280;6152;48.728;9.256;2022-09-09T07:53:38;96825.47;;;18.59;98.27
12178;BME280;6152;48.728;9.256;2022-09-09T07:56:08;96829.38;;;18.55;98.78
12178;BME280;6152;48.728;9.256;2022-09-09T07:58:36;96832.47;;;18.50;99.21
12178;BME280;6152;48.728;9.256;2022-09-09T08:01:07;96836.88;;;18.50;97.78
12178;BME280;6152;48.728;9.256;2022-09-09T08:03:34;96836.69;;;18.61;100.00
12178;BME280;6152;48.728;9.256;2022-09-09T08:06:02;96834.38;;;18.48;99.03
12178;BME280;6152;48.728;9.256;2022-09-09T08:08:29;96832.53;;;18.58;99.15
12178;BME280;6152;48.728;9.256;2022-09-09T08:11:06;96828.13;;;18.77;97.50
12178;BME280;6152;48.728;9.256;2022-09-09T08:13:34;96840.47;;;19.11;95.54
12178;BME280;6152;48.728;9.256;2022-09-09T08:16:11;96845.41;;;19.32;92.69
12178;BME280;6152;48.728;9.256;2022-09-09T08:18:38;96846.03;;;19.26;94.27
12178;BME280;6152;48.728;9.256;2022-09-09T08:21:15;96836.75;;;19.22;92.60
12178;BME280;6152;48.728;9.256;2022-09-09T08:23:45;96835.78;;;19.23;90.76
12178;BME280;6152;48.728;9.256;2022-09-09T08:26:16;96841.19;;;19.39;91.65
12178;BME280;6152;48.728;9.256;2022-09-09T08:28:43;96847.22;;;19.49;90.57
12178;BME280;6152;48.728;9.256;2022-09-09T08:31:37;96844.63;;;19.83;88.40
12178;BME280;6152;48.728;9.256;2022-09-09T08:34:04;96851.38;;;19.78;87.96
12178;BME280;6152;48.728;9.256;2022-09-09T08:36:35;96847.59;;;19.80;88.07
12178;BME280;6152;48.728;9.256;2022-09-09T08:39:03;96852.38;;;20.52;84.34
12178;BME280;6152;48.728;9.256;2022-09-09T08:50:21;96835.88;;;26.22;49.31
12178;BME280;6152;48.728;9.256;2022-09-09T08:55:42;96841.84;;;27.91;42.92
12178;BME280;6152;48.728;9.256;2022-09-09T08:58:19;96833.91;;;26.85;44.89
12178;BME280;6152;48.728;9.256;2022-09-09T09:11:44;96823.28;;;29.99;38.08
12178;BME280;6152;48.728;9.256;2022-09-09T09:14:20;96815.94;;;31.38;36.26
12178;BME280;6152;48.728;9.256;2022-09-09T09:17:15;96813.38;;;31.43;34.97
12178;BME280;6152;48.728;9.256;2022-09-09T09:19:43;96811.03;;;30.76;35.70
12178;BME280;6152;48.728;9.256;2022-09-09T09:22:38;96815.84;;;30.37;36.47
12178;BME280;6152;48.728;9.256;2022-09-09T09:25:14;96813.09;;;30.44;36.26
12178;BME280;6152;48.728;9.256;2022-09-09T09:28:03;96814.56;;;29.29;38.19
12178;BME280;6152;48.728;9.256;2022-09-09T09:30:50;96820.88;;;29.03;38.74
12178;BME280;6152;48.728;9.256;2022-09-09T09:33:22;96849.69;;;26.04;43.76
12178;BME280;6152;48.728;9.256;2022-09-09T09:35:50;96886.19;;;23.51;51.73
12178;BME280;6152;48.728;9.256;2022-09-09T09:38:19;96843.75;;;21.08;64.69
12178;BME280;6152;48.728;9.256;2022-09-09T09:40:56;96838.16;;;20.37;66.85
12178;BME280;6152;48.728;9.256;2022-09-09T09:43:31;96818.50;;;19.46;70.69
12178;BME280;6152;48.728;9.256;2022-09-09T09:45:58;96814.75;;;20.66;75.84
12178;BME280;6152;48.728;9.256;2022-09-09T09:48:26;96827.72;;;23.51;65.83
12178;BME280;6152;48.728;9.256;2022-09-09T09:51:11;96819.50;;;25.97;47.31
12178;BME280;6152;48.728;9.256;2022-09-09T09:53:40;96804.28;;;28.37;43.59
12178;BME280;6152;48.728;9.256;2022-09-09T09:56:11;96803.88;;;30.51;41.84
12178;BME280;6152;48.728;9.256;2022-09-09T09:58:50;96794.16;;;32.68;35.82
12178;BME280;6152;48.728;9.256;2022-09-09T10:01:28;96785.50;;;33.56;33.19
12178;BME280;6152;48.728;9.256;2022-09-09T10:04:01;96788.84;;;34.34;30.82
12178;BME280;6152;48.728;9.256;2022-09-09T10:06:32;96790.53;;;35.96;29.91
12178;BME280;6152;48.728;9.256;2022-09-09T10:08:59;96776.19;;;37.60;27.48
12178;BME280;6152;48.728;9.256;2022-09-09T10:11:55;96786.19;;;38.15;26.87
12178;BME280;6152;48.728;9.256;2022-09-09T10:14:32;96767.72;;;37.87;24.79
12178;BME280;6152;48.728;9.256;2022-09-09T10:17:12;96765.41;;;39.04;25.77
12178;BME280;6152;48.728;9.256;2022-09-09T10:19:55;96760.66;;;39.92;23.90
12178;BME280;6152;48.728;9.256;2022-09-09T10:22:32;96758.78;;;37.66;26.66
12178;BME280;6152;48.728;9.256;2022-09-09T10:33:04;96744.63;;;31.94;31.53
12178;BME280;6152;48.728;9.256;2022-09-09T10:38:41;96753.25;;;32.71;32.29
12178;BME280;6152;48.728;9.256;2022-09-09T10:45:17;96739.69;;;31.91;32.36
12178;BME280;6152;48.728;9.256;2022-09-09T10:47:33;96746.09;;;31.32;34.07
12178;BME280;6152;48.728;9.256;2022-09-09T10:55:41;96743.41;;;30.13;36.48
12178;BME280;6152;48.728;9.256;2022-09-09T10:58:15;96744.09;;;31.27;34.83
12178;BME280;6152;48.728;9.256;2022-09-09T11:00:51;96736.47;;;32.69;31.58
12178;BME280;6152;48.728;9.256;2022-09-09T11:03:23;96728.44;;;35.21;29.56
12178;BME280;6152;48.728;9.256;2022-09-09T11:06:04;96726.94;;;35.67;27.02
12178;BME280;6152;48.728;9.256;2022-09-09T11:08:32;96743.69;;;33.91;29.27
12178;BME280;6152;48.728;9.256;2022-09-09T11:11:20;96728.56;;;32.50;29.86
12178;BME280;6152;48.728;9.256;2022-09-09T11:13:59;96734.19;;;30.56;34.52
12178;BME280;6152;48.728;9.256;2022-09-09T11:16:34;96736.38;;;29.01;37.79
12178;BME280;6152;48.728;9.256;2022-09-09T11:19:22;96740.56;;;27.95;37.69
12178;BME280;6152;48.728;9.256;2022-09-09T11:21:53;96740.59;;;26.77;39.05
12178;BME280;6152;48.728;9.256;2022-09-09T11:24:26;96746.50;;;26.05;40.66
12178;BME280;6152;48.728;9.256;2022-09-09T11:40:38;96805.84;;;19.32;85.03
12178;BME280;6152;48.728;9.256;2022-09-09T11:43:17;96803.94;;;18.63;95.80
12178;BME280;6152;48.728;9.256;2022-09-09T11:45:59;96800.28;;;18.47;99.62
12178;BME280;6152;48.728;9.256;2022-09-09T11:48:40;96789.25;;;18.61;97.41
12178;BME280;6152;48.728;9.256;2022-09-09T11:51:24;96785.59;;;20.00;80.94
12178;BME280;6152;48.728;9.256;2022-09-09T11:53:53;96783.50;;;20.62;76.92
12178;BME280;6152;48.728;9.256;2022-09-09T11:56:31;96784.66;;;20.59;74.89
12178;BME280;6152;48.728;9.256;2022-09-09T11:59:22;96777.06;;;20.64;66.96
12178;BME280;6152;48.728;9.256;2022-09-09T12:02:17;96791.13;;;20.89;63.49
12178;BME280;6152;48.728;9.256;2022-09-09T12:09:58;96785.78;;;26.65;40.87
12178;BME280;6152;48.728;9.256;2022-09-09T12:12:33;96782.56;;;25.94;40.21
12178;BME280;6152;48.728;9.256;2022-09-09T12:17:29;96793.63;;;24.93;42.52
12178;BME280;6152;48.728;9.256;2022-09-09T12:20:04;96782.84;;;24.44;44.46
12178;BME280;6152;48.728;9.256;2022-09-09T12:22:37;96786.34;;;25.02;42.92
12178;BME280;6152;48.728;9.256;2022-09-09T12:25:09;96793.72;;;26.11;40.85
12178;BME280;6152;48.728;9.256;2022-09-09T12:30:29;96775.94;;;28.17;38.26
12178;BME280;6152;48.728;9.256;2022-09-09T12:33:06;96769.50;;;28.82;35.87
12178;BME280;6152;48.728;9.256;2022-09-09T12:35:34;96760.91;;;28.67;34.75
12178;BME280;6152;48.728;9.256;2022-09-09T12:38:04;96758.28;;;27.89;35.44
12178;BME280;6152;48.728;9.256;2022-09-09T12:40:36;96757.06;;;26.87;36.90
12178;BME280;6152;48.728;9.256;2022-09-09T12:43:18;96763.13;;;25.73;39.58
12178;BME280;6152;48.728;9.256;2022-09-09T12:45:45;96765.16;;;25.15;41.88
12178;BME280;6152;48.728;9.256;2022-09-09T12:48:12;96753.13;;;24.62;40.40
12178;BME280;6152;48.728;9.256;2022-09-09T12:50:47;96752.69;;;24.37;40.04
12178;BME280;6152;48.728;9.256;2022-09-09T12:53:22;96754.09;;;23.23;43.18
12178;BME280;6152;48.728;9.256;2022-09-09T12:56:00;96760.63;;;23.35;43.91
12178;BME280;6152;48.728;9.256;2022-09-09T12:58:29;96753.28;;;23.22;44.97
12178;BME280;6152;48.728;9.256;2022-09-09T13:00:59;96755.44;;;23.04;44.22
12178;BME280;6152;48.728;9.256;2022-09-09T13:03:27;96752.13;;;22.56;45.48
12178;BME280;6152;48.728;9.256;2022-09-09T13:05:53;96752.59;;;22.37;45.86
12178;BME280;6152;48.728;9.256;2022-09-09T13:08:24;96750.22;;;22.11;48.03
12178;BME280;6152;48.728;9.256;2022-09-09T13:11:03;96742.13;;;22.05;47.69
12178;BME280;6152;48.728;9.256;2022-09-09T13:13:41;96742.91;;;22.13;48.40
12178;BME280;6152;48.728;9.256;2022-09-09T13:16:41;96745.44;;;22.07;48.77
12178;BME280;6152;48.728;9.256;2022-09-09T13:19:18;96748.47;;;21.96;49.46
12178;BME280;6152;48.728;9.256;2022-09-09T13:21:44;96739.63;;;22.11;49.08
12178;BME280;6152;48.728;9.256;2022-09-09T13:24:32;96748.75;;;22.09;49.77
12178;BME280;6152;48.728;9.256;2022-09-09T13:27:00;96745.84;;;21.80;48.12
12178;BME280;6152;48.728;9.256;2022-09-09T13:29:31;96738.03;;;21.94;47.81
12178;BME280;6152;48.728;9.256;2022-09-09T13:32:16;96741.63;;;22.40;46.21
12178;BME280;6152;48.728;9.256;2022-09-09T13:34:52;96739.59;;;22.42;46.73
12178;BME280;6152;48.728;9.256;2022-09-09T13:37:39;96729.94;;;21.96;47.21
12178;BME280;6152;48.728;9.256;2022-09-09T13:40:17;96724.28;;;21.99;48.39
12178;BME280;6152;48.728;9.256;2022-09-09T13:42:45;96722.59;;;22.06;49.19
12178;BME280;6152;48.728;9.256;2022-09-09T13:45:22;96727.91;;;22.06;50.56
12178;BME280;6152;48.728;9.256;2022-09-09T13:47:53;96729.53;;;22.07;50.09
12178;BME280;6152;48.728;9.256;2022-09-09T13:50:27;96734.81;;;22.07;49.89
12178;BME280;6152;48.728;9.256;2022-09-09T13:52:56;96735.56;;;21.85;49.19
12178;BME280;6152;48.728;9.256;2022-09-09T13:55:25;96730.97;;;21.79;49.83
12178;BME280;6152;48.728;9.256;2022-09-09T13:57:57;96732.25;;;21.83;50.11
12178;BME280;6152;48.728;9.256;2022-09-09T14:00:23;96732.94;;;21.77;51.21
12178;BME280;6152;48.728;9.256;2022-09-09T14:02:50;96728.28;;;21.95;51.34
12178;BME280;6152;48.728;9.256;2022-09-09T14:05:18;96729.88;;;22.04;51.30
12178;BME280;6152;48.728;9.256;2022-09-09T14:07:44;96727.91;;;22.06;49.71
12178;BME280;6152;48.728;9.256;2022-09-09T14:10:11;96728.19;;;22.11;48.97
12178;BME280;6152;48.728;9.256;2022-09-09T14:12:38;96722.97;;;21.87;48.90
12178;BME280;6152;48.728;9.256;2022-09-09T14:15:05;96710.25;;;21.82;48.33
12178;BME280;6152;48.728;9.256;2022-09-09T14:17:32;96727.94;;;21.90;50.12
12178;BME280;6152;48.728;9.256;2022-09-09T14:19:59;96730.13;;;21.78;48.47
12178;BME280;6152;48.728;9.256;2022-09-09T14:22:25;96724.69;;;21.72;48.48
12178;BME280;6152;48.728;9.256;2022-09-09T14:24:51;96729.94;;;21.88;49.31
12178;BME280;6152;48.728;9.256;2022-09-09T14:27:18;96723.97;;;21.94;47.46
12178;BME280;6152;48.728;9.256;2022-09-09T14:29:45;96715.78;;;22.03;47.73
12178;BME280;6152;48.728;9.256;2022-09-09T14:32:11;96722.84;;;22.19;48.05
12178;BME280;6152;48.728;9.256;2022-09-09T14:34:38;96713.19;;;22.26;46.97
12178;BME280;6152;48.728;9.256;2022-09-09T14:37:04;96714.84;;;22.27;46.15
12178;BME280;6152;48.728;9.256;2022-09-09T14:39:30;96710.81;;;22.08;47.30
12178;BME280;6152;48.728;9.256;2022-09-09T14:41:56;96711.03;;;21.99;45.11
12178;BME280;6152;48.728;9.256;2022-09-09T14:44:22;96713.38;;;21.86;45.29
12178;BME280;6152;48.728;9.256;2022-09-09T14:46:48;96708.06;;;21.94;44.10
12178;BME280;6152;48.728;9.256;2022-09-09T14:49:17;96723.97;;;21.94;44.31
12178;BME280;6152;48.728;9.256;2022-09-09T14:51:44;96712.34;;;22.03;45.26
12178;BME280;6152;48.728;9.256;2022-09-09T14:54:10;96712.94;;;22.13;43.22
12178;BME280;6152;48.728;9.256;2022-09-09T14:56:36;96717.78;;;22.09;43.34
12178;BME280;6152;48.728;9.256;2022-09-09T14:59:04;96724.53;;;22.12;44.13
12178;BME280;6152;48.728;9.256;2022-09-09T15:01:31;96718.66;;;21.94;43.06
12178;BME280;6152;48.728;9.256;2022-09-09T15:04:03;96724.31;;;21.91;43.88
12178;BME280;6152;48.728;9.256;2022-09-09T15:06:32;96713.19;;;21.95;43.82
12178;BME280;6152;48.728;9.256;2022-09-09T15:09:04;96724.63;;;21.96;44.46
12178;BME280;6152;48.728;9.256;2022-09-09T15:11:34;96719.34;;;21.96;43.78
12178;BME280;6152;48.728;9.256;2022-09-09T15:14:04;96716.34;;;21.99;43.05
12178;BME280;6152;48.728;9.256;2022-09-09T15:16:31;96720.66;;;21.92;42.87
12178;BME280;6152;48.728;9.256;2022-09-09T15:18:59;96734.59;;;21.78;43.37
12178;BME280;6152;48.728;9.256;2022-09-09T15:21:28;96725.69;;;21.71;43.75
12178;BME280;6152;48.728;9.256;2022-09-09T15:23:55;96721.72;;;21.75;44.51